RCSS/TSA METAR and TAF weather

Enter ICAO airport designator
Station Type Date Time Source
RCSS METAR 2019/02/18 03:30 UTC NOAA

RCSS 180330Z 28006KT 2000 -RA SCT003 BKN007 OVC020 21/19 Q1016 NOSIG RMK A3001


Station Type Date Time Source
RCSS Decoded METAR 2019/02/18 03:30 UTC NOAA

Sungshan / Taipei, Taiwan (RCSS) 25-04N 121-33E
Feb 17, 2019 - 10:30 PM EST / 2019.02.18 0330 UTC
Wind: from the W (280 degrees) at 7 MPH (6 KT):0
Visibility: 1 mile(s):0
Sky conditions: overcast
Weather: light rain
Temperature: 69 F (21 C)
Dew Point: 66 F (19 C)
Relative Humidity: 88%
Pressure (altimeter): 30.00 in. Hg (1016 hPa)
ob: RCSS 180330Z 28006KT 2000 -RA SCT003 BKN007 OVC020 21/19 Q1016 NOSIG RMK A3001
cycle: 3

Station Type Date Time Source
RCSS TAF 2019/02/18 03:30 UTC NOAA

TAF
AMD TAF
AMD RCSS 180326Z 1803/1824 27005KT 8000 FEW008 BKN018 BKN035
TEMPO 1803/1805 2200 RA SCT004 BKN008 BKN020
TEMPO 1805/1810 12006KT SCT007 BKN012 BKN030
TEMPO 1818/1824 5000 RA SCT008 BKN012 BKN030


Example: see airport list